sensor_id;sensor_type;location;lat;lon;timestamp;pressure;altitude;pressure_sealevel;temperature;humidity
2000;BME280;1001;48.87406500;9.59633600;2023-07-02T10:38:31;94827.81;;;21.83;53.35
2000;BME280;1001;48.87406500;9.59633600;2023-07-02T10:40:58;94820.06;;;21.95;54.77
2000;BME280;1001;48.87406500;9.59633600;2023-07-02T10:43:25;94820.63;;;22.14;53.93
2000;BME280;1001;48.87406500;9.59633600;2023-07-02T10:45:53;94818.06;;;22.49;53.08
2000;BME280;1001;48.87406500;9.59633600;2023-07-02T10:48:20;94808.63;;;21.95;51.53
2000;BME280;1001;48.87406500;9.59633600;2023-07-02T10:50:47;94826.41;;;22.16;54.56
2000;BME280;1001;48.87406500;9.59633600;2023-07-02T10:53:18;94818.44;;;22.25;52.12
2000;BME280;1001;48.87406500;9.59633600;2023-07-02T10:55:53;94823.94;;;22.68;54.64
2000;BME280;1001;48.87406500;9.59633600;2023-07-02T10:58:20;94840.19;;;22.58;51.68
2000;BME280;1001;48.87406500;9.59633600;2023-07-02T11:00:47;94820.06;;;22.34;52.05
2000;BME280;1001;48.87406500;9.59633600;2023-07-02T11:03:17;94829.94;;;22.03;53.73
2000;BME280;1001;48.87406500;9.59633600;2023-07-02T11:05:46;94827.69;;;22.67;52.67
2000;BME280;1001;48.87406500;9.59633600;2023-07-02T11:08:13;94831.03;;;23.15;54.36
2000;BME280;1001;48.87406500;9.59633600;2023-07-02T11:10:40;94835.91;;;22.96;50.08
2000;BME280;1001;48.87406500;9.59633600;2023-07-02T11:13:12;94832.75;;;23.02;50.88
2000;BME280;1001;48.87406500;9.59633600;2023-07-02T11:15:38;94833.41;;;23.25;49.62
2000;BME280;1001;48.87406500;9.59633600;2023-07-02T11:18:10;94830.25;;;23.15;49.33
2000;BME280;1001;48.87406500;9.59633600;2023-07-02T11:20:38;94827.91;;;23.05;50.67
2000;BME280;1001;48.87406500;9.59633600;2023-07-02T11:23:04;94824.47;;;23.21;50.28
2000;BME280;1001;48.87406500;9.59633600;2023-07-02T11:25:31;94822.69;;;23.77;49.63
2000;BME280;1001;48.87406500;9.59633600;2023-07-02T11:28:04;94822.69;;;23.77;50.50
2000;BME280;1001;48.87406500;9.59633600;2023-07-02T11:30:33;94819.59;;;23.57;50.49
2000;BME280;1001;48.87406500;9.59633600;2023-07-02T11:33:00;94828.28;;;24.09;50.79
2000;BME280;1001;48.87406500;9.59633600;2023-07-02T11:35:34;94836.19;;;24.35;48.20
2000;BME280;1001;48.87406500;9.59633600;2023-07-02T11:38:01;94827.25;;;23.67;49.05
2000;BME280;1001;48.87406500;9.59633600;2023-07-02T11:40:27;94834.91;;;22.75;50.89
2000;BME280;1001;48.87406500;9.59633600;2023-07-02T11:42:54;94832.47;;;23.38;51.64
2000;BME280;1001;48.87406500;9.59633600;2023-07-02T11:45:21;94835.91;;;23.30;48.59
2000;BME280;1001;48.87406500;9.59633600;2023-07-02T11:47:49;94811.88;;;22.70;50.71
2000;BME280;1001;48.87406500;9.59633600;2023-07-02T11:50:15;94816.44;;;22.95;51.55
2000;BME280;1001;48.87406500;9.59633600;2023-07-02T11:52:42;94819.28;;;23.16;50.98
2000;BME280;1001;48.87406500;9.59633600;2023-07-02T11:55:08;94816.47;;;23.38;52.17
2000;BME280;1001;48.87406500;9.59633600;2023-07-02T11:57:35;94803.91;;;23.13;51.26
2000;BME280;1001;48.87406500;9.59633600;2023-07-02T12:00:02;94809.09;;;23.18;49.72
2000;BME280;1001;48.87406500;9.59633600;2023-07-02T12:02:29;94813.63;;;22.92;49.86
2000;BME280;1001;48.87406500;9.59633600;2023-07-02T12:04:57;94806.56;;;23.30;50.77
2000;BME280;1001;48.87406500;9.59633600;2023-07-02T12:07:23;94806.50;;;23.82;47.81
2000;BME280;1001;48.87406500;9.59633600;2023-07-02T12:09:50;94815.44;;;23.94;47.68
2000;BME280;1001;48.87406500;9.59633600;2023-07-02T12:12:17;94795.25;;;24.05;46.59
2000;BME280;1001;48.87406500;9.59633600;2023-07-02T12:14:44;94807.34;;;23.56;48.30
2000;BME280;1001;48.87406500;9.59633600;2023-07-02T12:17:10;94813.31;;;23.28;49.42
2000;BME280;1001;48.87406500;9.59633600;2023-07-02T12:19:37;94813.31;;;23.45;49.46
2000;BME280;1001;48.87406500;9.59633600;2023-07-02T12:22:06;94808.78;;;23.28;49.17
2000;BME280;1001;48.87406500;9.59633600;2023-07-02T12:24:33;94812.72;;;23.39;48.76
2000;BME280;1001;48.87406500;9.59633600;2023-07-02T12:26:59;94805.78;;;23.30;49.49
2000;BME280;1001;48.87406500;9.59633600;2023-07-02T12:29:26;94803.75;;;23.44;50.99
2000;BME280;1001;48.87406500;9.59633600;2023-07-02T12:31:52;94806.88;;;23.20;48.12
2000;BME280;1001;48.87406500;9.59633600;2023-07-02T12:34:19;94802.50;;;23.16;49.71
2000;BME280;1001;48.87406500;9.59633600;2023-07-02T12:36:45;94805.50;;;23.40;47.80
2000;BME280;1001;48.87406500;9.59633600;2023-07-02T12:39:13;94810.81;;;23.23;48.18
2000;BME280;1001;48.87406500;9.59633600;2023-07-02T12:41:40;94792.44;;;23.30;46.70
2000;BME280;1001;48.87406500;9.59633600;2023-07-02T12:44:07;94803.56;;;23.66;47.94
2000;BME280;1001;48.87406500;9.59633600;2023-07-02T12:46:34;94806.69;;;23.34;46.52
2000;BME280;1001;48.87406500;9.59633600;2023-07-02T12:49:00;94820.84;;;23.34;49.77
2000;BME280;1001;48.87406500;9.59633600;2023-07-02T12:51:27;94813.13;;;23.76;48.39
2000;BME280;1001;48.87406500;9.59633600;2023-07-02T12:53:53;94811.66;;;23.87;46.62
2000;BME280;1001;48.87406500;9.59633600;2023-07-02T12:56:21;94804.28;;;23.84;46.65
2000;BME280;1001;48.87406500;9.59633600;2023-07-02T12:58:48;94812.53;;;24.16;47.13
2000;BME280;1001;48.87406500;9.59633600;2023-07-02T13:01:16;94818.84;;;24.03;48.78
2000;BME280;1001;48.87406500;9.59633600;2023-07-02T13:03:45;94819.16;;;24.48;47.14
2000;BME280;1001;48.87406500;9.59633600;2023-07-02T13:06:12;94819.56;;;25.09;45.74
2000;BME280;1001;48.87406500;9.59633600;2023-07-02T13:08:39;94819.38;;;25.14;43.57
2000;BME280;1001;48.87406500;9.59633600;2023-07-02T13:11:06;94811.63;;;25.00;43.81
2000;BME280;1001;48.87406500;9.59633600;2023-07-02T13:13:35;94807.66;;;25.27;39.42
2000;BME280;1001;48.87406500;9.59633600;2023-07-02T13:16:02;94807.19;;;25.04;44.57
2000;BME280;1001;48.87406500;9.59633600;2023-07-02T13:18:28;94819.19;;;24.69;44.25
2000;BME280;1001;48.87406500;9.59633600;2023-07-02T13:20:55;94801.06;;;24.45;43.58
2000;BME280;1001;48.87406500;9.59633600;2023-07-02T13:23:22;94827.47;;;24.17;46.46
2000;BME280;1001;48.87406500;9.59633600;2023-07-02T13:25:48;94813.88;;;24.31;43.80
2000;BME280;1001;48.87406500;9.59633600;2023-07-02T13:28:15;94819.88;;;24.57;45.30
2000;BME280;1001;48.87406500;9.59633600;2023-07-02T13:30:43;94812.19;;;24.26;43.08
2000;BME280;1001;48.87406500;9.59633600;2023-07-02T13:33:09;94815.47;;;24.23;44.90
2000;BME280;1001;48.87406500;9.59633600;2023-07-02T13:35:36;94816.19;;;24.70;46.55
2000;BME280;1001;48.87406500;9.59633600;2023-07-02T13:38:03;94818.84;;;24.79;44.55
2000;BME280;1001;48.87406500;9.59633600;2023-07-02T13:40:30;94816.56;;;24.89;43.55
2000;BME280;1001;48.87406500;9.59633600;2023-07-02T13:42:57;94815.19;;;24.83;41.56
2000;BME280;1001;48.87406500;9.59633600;2023-07-02T13:45:23;94813.19;;;24.72;42.00
2000;BME280;1001;48.87406500;9.59633600;2023-07-02T13:47:51;94808.09;;;24.29;42.05
2000;BME280;1001;48.87406500;9.59633600;2023-07-02T13:50:18;94804.56;;;24.66;44.00
2000;BME280;1001;48.87406500;9.59633600;2023-07-02T13:52:45;94797.13;;;24.22;42.64
2000;BME280;1001;48.87406500;9.59633600;2023-07-02T13:55:13;94804.78;;;24.23;43.30
2000;BME280;1001;48.87406500;9.59633600;2023-07-02T13:57:39;94810.88;;;24.32;42.68
2000;BME280;1001;48.87406500;9.59633600;2023-07-02T14:00:09;94813.47;;;24.50;42.39
2000;BME280;1001;48.87406500;9.59633600;2023-07-02T14:02:36;94803.50;;;23.92;43.75
2000;BME280;1001;48.87406500;9.59633600;2023-07-02T14:05:02;94813.28;;;24.25;41.97
2000;BME280;1001;48.87406500;9.59633600;2023-07-02T14:07:29;94801.56;;;24.09;42.66
2000;BME280;1001;48.87406500;9.59633600;2023-07-02T14:09:55;94811.78;;;23.99;43.12
2000;BME280;1001;48.87406500;9.59633600;2023-07-02T14:12:22;94808.59;;;24.22;42.10
2000;BME280;1001;48.87406500;9.59633600;2023-07-02T14:14:49;94807.13;;;24.33;41.53
2000;BME280;1001;48.87406500;9.59633600;2023-07-02T14:17:17;94809.56;;;24.47;42.67
2000;BME280;1001;48.87406500;9.59633600;2023-07-02T14:19:43;94802.13;;;24.23;42.27
2000;BME280;1001;48.87406500;9.59633600;2023-07-02T14:22:10;94806.59;;;24.40;42.93
2000;BME280;1001;48.87406500;9.59633600;2023-07-02T14:24:37;94812.88;;;24.73;42.20
2000;BME280;1001;48.87406500;9.59633600;2023-07-02T14:27:04;94816.63;;;25.01;41.13
2000;BME280;1001;48.87406500;9.59633600;2023-07-02T14:29:31;94805.75;;;24.86;39.91
2000;BME280;1001;48.87406500;9.59633600;2023-07-02T14:31:58;94805.34;;;25.17;39.92
2000;BME280;1001;48.87406500;9.59633600;2023-07-02T14:34:26;94795.34;;;25.26;40.83
2000;BME280;1001;48.87406500;9.59633600;2023-07-02T14:36:53;94803.25;;;25.43;39.50
2000;BME280;1001;48.87406500;9.59633600;2023-07-02T14:39:19;94802.22;;;25.15;40.85
2000;BME280;1001;48.87406500;9.59633600;2023-07-02T14:41:46;94807.06;;;25.00;40.33
2000;BME280;1001;48.87406500;9.59633600;2023-07-02T14:44:13;94814.00;;;25.34;39.98
2000;BME280;1001;48.87406500;9.59633600;2023-07-02T14:46:39;94805.94;;;25.22;40.03
2000;BME280;1001;48.87406500;9.59633600;2023-07-02T14:49:07;94811.41;;;25.67;40.43
2000;BME280;1001;48.87406500;9.59633600;2023-07-02T14:51:35;94813.31;;;25.25;39.32
2000;BME280;1001;48.87406500;9.59633600;2023-07-02T14:54:02;94812.38;;;25.42;40.35
2000;BME280;1001;48.87406500;9.59633600;2023-07-02T14:56:29;94806.72;;;25.76;39.12
2000;BME280;1001;48.87406500;9.59633600;2023-07-02T14:58:55;94813.69;;;25.56;38.01
2000;BME280;1001;48.87406500;9.59633600;2023-07-02T15:01:22;94800.94;;;25.53;38.76
2000;BME280;1001;48.87406500;9.59633600;2023-07-02T15:03:49;94803.47;;;26.15;38.74
2000;BME280;1001;48.87406500;9.59633600;2023-07-02T15:06:16;94808.63;;;26.32;39.35
2000;BME280;1001;48.87406500;9.59633600;2023-07-02T15:08:45;94812.78;;;26.78;38.80
2000;BME280;1001;48.87406500;9.59633600;2023-07-02T15:11:13;94810.53;;;26.32;37.22
2000;BME280;1001;48.87406500;9.59633600;2023-07-02T15:13:40;94801.91;;;26.39;36.50
2000;BME280;1001;48.87406500;9.59633600;2023-07-02T15:16:08;94796.09;;;26.12;38.63
2000;BME280;1001;48.87406500;9.59633600;2023-07-02T15:18:35;94803.53;;;25.95;37.89
2000;BME280;1001;48.87406500;9.59633600;2023-07-02T15:21:02;94798.06;;;26.03;37.30
2000;BME280;1001;48.87406500;9.59633600;2023-07-02T15:23:29;94799.03;;;25.87;37.80
2000;BME280;1001;48.87406500;9.59633600;2023-07-02T15:25:59;94802.78;;;26.06;36.82
2000;BME280;1001;48.87406500;9.59633600;2023-07-02T15:28:27;94795.84;;;26.05;36.87
2000;BME280;1001;48.87406500;9.59633600;2023-07-02T15:30:55;94796.38;;;25.99;37.56
2000;BME280;1001;48.87406500;9.59633600;2023-07-02T15:33:23;94789.03;;;26.08;37.86
2000;BME280;1001;48.87406500;9.59633600;2023-07-02T15:35:50;94792.41;;;26.29;37.86
2000;BME280;1001;48.87406500;9.59633600;2023-07-02T15:38:17;94798.78;;;26.97;36.98
2000;BME280;1001;48.87406500;9.59633600;2023-07-02T15:40:46;94803.34;;;27.09;36.58
2000;BME280;1001;48.87406500;9.59633600;2023-07-02T15:43:14;94801.09;;;27.50;35.46
2000;BME280;1001;48.87406500;9.59633600;2023-07-02T15:45:41;94799.00;;;26.56;35.88
2000;BME280;1001;48.87406500;9.59633600;2023-07-02T15:48:07;94793.66;;;26.56;36.28
2000;BME280;1001;48.87406500;9.59633600;2023-07-02T15:50:34;94787.28;;;26.36;36.48
2000;BME280;1001;48.87406500;9.59633600;2023-07-02T15:53:00;94794.78;;;26.43;36.78
2000;BME280;1001;48.87406500;9.59633600;2023-07-02T15:55:28;94801.31;;;27.06;36.48
2000;BME280;1001;48.87406500;9.59633600;2023-07-02T15:57:54;94794.75;;;26.67;36.33
2000;BME280;1001;48.87406500;9.59633600;2023-07-02T16:00:23;94803.06;;;26.62;36.92
2000;BME280;1001;48.87406500;9.59633600;2023-07-02T16:02:49;94796.66;;;26.66;37.02
2000;BME280;1001;48.87406500;9.59633600;2023-07-02T16:05:16;94786.78;;;27.07;35.87
2000;BME280;1001;48.87406500;9.59633600;2023-07-02T16:07:42;94798.88;;;27.00;35.57
2000;BME280;1001;48.87406500;9.59633600;2023-07-02T16:10:10;94796.34;;;26.80;36.21
2000;BME280;1001;48.87406500;9.59633600;2023-07-02T16:12:36;94799.25;;;27.27;36.24
2000;BME280;1001;48.87406500;9.59633600;2023-07-02T16:15:05;94803.53;;;27.55;34.17
2000;BME280;1001;48.87406500;9.59633600;2023-07-02T16:17:33;94809.47;;;27.77;35.51
2000;BME280;1001;48.87406500;9.59633600;2023-07-02T16:20:00;94806.94;;;27.28;35.70
2000;BME280;1001;48.87406500;9.59633600;2023-07-02T16:22:27;94798.34;;;27.35;34.94
2000;BME280;1001;48.87406500;9.59633600;2023-07-02T16:24:53;94796.75;;;27.34;36.31
2000;BME280;1001;48.87406500;9.59633600;2023-07-02T16:27:20;94796.22;;;26.88;36.65
2000;BME280;1001;48.87406500;9.59633600;2023-07-02T16:29:47;94790.16;;;27.31;35.78
2000;BME280;1001;48.87406500;9.59633600;2023-07-02T16:32:13;94795.28;;;27.36;35.18
2000;BME280;1001;48.87406500;9.59633600;2023-07-02T16:34:41;94792.91;;;27.75;35.58
2000;BME280;1001;48.87406500;9.59633600;2023-07-02T16:37:09;94792.59;;;27.36;34.69
2000;BME280;1001;48.87406500;9.59633600;2023-07-02T16:39:35;94787.78;;;27.70;34.70
2000;BME280;1001;48.87406500;9.59633600;2023-07-02T16:42:02;94788.25;;;27.32;35.51
2000;BME280;1001;48.87406500;9.59633600;2023-07-02T16:44:29;94781.91;;;26.48;35.93
2000;BME280;1001;48.87406500;9.59633600;2023-07-02T16:46:56;94799.22;;;26.63;36.52
2000;BME280;1001;48.87406500;9.59633600;2023-07-02T16:49:26;94801.75;;;27.08;36.42
2000;BME280;1001;48.87406500;9.59633600;2023-07-02T16:51:54;94796.28;;;27.16;35.24
2000;BME280;1001;48.87406500;9.59633600;2023-07-02T16:54:23;94801.13;;;26.62;36.01
2000;BME280;1001;48.87406500;9.59633600;2023-07-02T16:56:52;94790.97;;;25.62;37.72
2000;BME280;1001;48.87406500;9.59633600;2023-07-02T16:59:22;94781.66;;;24.86;39.24
2000;BME280;1001;48.87406500;9.59633600;2023-07-02T17:01:50;94792.59;;;24.43;39.57
2000;BME280;1001;48.87406500;9.59633600;2023-07-02T17:04:17;94780.31;;;24.42;40.36
2000;BME280;1001;48.87406500;9.59633600;2023-07-02T17:06:50;94786.97;;;24.36;39.81
2000;BME280;1001;48.87406500;9.59633600;2023-07-02T17:09:24;94787.00;;;23.90;41.35
2000;BME280;1001;48.87406500;9.59633600;2023-07-02T17:11:55;94782.31;;;23.78;41.31
2000;BME280;1001;48.87406500;9.59633600;2023-07-02T17:14:24;94783.84;;;23.96;41.36
2000;BME280;1001;48.87406500;9.59633600;2023-07-02T17:16:56;94778.78;;;23.95;41.11
2000;BME280;1001;48.87406500;9.59633600;2023-07-02T17:19:26;94775.69;;;23.84;41.89
2000;BME280;1001;48.87406500;9.59633600;2023-07-02T17:21:54;94783.63;;;23.63;41.24
2000;BME280;1001;48.87406500;9.59633600;2023-07-02T17:24:24;94774.50;;;23.64;41.51
2000;BME280;1001;48.87406500;9.59633600;2023-07-02T17:26:52;94788.97;;;23.63;41.17
2000;BME280;1001;48.87406500;9.59633600;2023-07-02T17:29:19;94779.81;;;23.73;41.14
2000;BME280;1001;48.87406500;9.59633600;2023-07-02T17:31:49;94773.28;;;23.53;42.24
2000;BME280;1001;48.87406500;9.59633600;2023-07-02T17:34:17;94779.06;;;23.55;41.42
2000;BME280;1001;48.87406500;9.59633600;2023-07-02T17:36:46;94787.56;;;23.49;42.39
2000;BME280;1001;48.87406500;9.59633600;2023-07-02T17:39:14;94783.34;;;23.22;42.18
2000;BME280;1001;48.87406500;9.59633600;2023-07-02T17:41:42;94785.56;;;23.12;42.17
2000;BME280;1001;48.87406500;9.59633600;2023-07-02T17:44:09;94780.66;;;23.22;42.98
2000;BME280;1001;48.87406500;9.59633600;2023-07-02T17:46:35;94772.81;;;23.17;43.08
2000;BME280;1001;48.87406500;9.59633600;2023-07-02T17:49:03;94781.13;;;22.64;43.27
2000;BME280;1001;48.87406500;9.59633600;2023-07-02T17:51:29;94782.22;;;22.72;43.27
2000;BME280;1001;48.87406500;9.59633600;2023-07-02T17:53:56;94780.59;;;22.54;43.60
2000;BME280;1001;48.87406500;9.59633600;2023-07-02T17:56:23;94782.47;;;22.53;44.13
2000;BME280;1001;48.87406500;9.59633600;2023-07-02T17:58:52;94783.63;;;22.61;43.82
2000;BME280;1001;48.87406500;9.59633600;2023-07-02T18:01:18;94780.59;;;22.45;44.22
2000;BME280;1001;48.87406500;9.59633600;2023-07-02T18:03:45;94785.22;;;22.22;44.36
2000;BME280;1001;48.87406500;9.59633600;2023-07-02T18:06:11;94791.94;;;22.20;44.72
2000;BME280;1001;48.87406500;9.59633600;2023-07-02T18:08:38;94775.69;;;22.21;44.85
2000;BME280;1001;48.87406500;9.59633600;2023-07-02T18:11:05;94791.81;;;22.25;45.25
2000;BME280;1001;48.87406500;9.59633600;2023-07-02T18:13:31;94784.72;;;22.12;44.50
2000;BME280;1001;48.87406500;9.59633600;2023-07-02T18:15:59;94787.41;;;22.12;45.13
2000;BME280;1001;48.87406500;9.59633600;2023-07-02T18:18:26;94794.38;;;21.99;45.03
2000;BME280;1001;48.87406500;9.59633600;2023-07-02T18:20:53;94790.72;;;21.87;45.56
2000;BME280;1001;48.87406500;9.59633600;2023-07-02T18:23:19;94786.72;;;21.76;45.66
2000;BME280;1001;48.87406500;9.59633600;2023-07-02T18:25:51;94786.72;;;21.76;45.56
2000;BME280;1001;48.87406500;9.59633600;2023-07-02T18:28:18;94791.91;;;21.72;45.80
2000;BME280;1001;48.87406500;9.59633600;2023-07-02T18:30:46;94787.78;;;21.66;45.86
2000;BME280;1001;48.87406500;9.59633600;2023-07-02T18:33:14;94792.28;;;21.57;45.73
2000;BME280;1001;48.87406500;9.59633600;2023-07-02T18:35:41;94788.50;;;21.58;46.41
2000;BME280;1001;48.87406500;9.59633600;2023-07-02T18:38:09;94790.81;;;21.51;46.61
2000;BME280;1001;48.87406500;9.59633600;2023-07-02T18:40:36;94790.06;;;21.28;46.56
2000;BME280;1001;48.87406500;9.59633600;2023-07-02T18:43:02;94784.81;;;21.15;47.17
2000;BME280;1001;48.87406500;9.59633600;2023-07-02T18:45:29;94792.94;;;21.18;47.59
2000;BME280;1001;48.87406500;9.59633600;2023-07-02T18:47:56;94799.91;;;21.06;46.90
2000;BME280;1001;48.87406500;9.59633600;2023-07-02T18:50:24;94790.84;;;20.93;47.63
2000;BME280;1001;48.87406500;9.59633600;2023-07-02T18:52:51;94796.88;;;20.85;48.42
2000;BME280;1001;48.87406500;9.59633600;2023-07-02T18:55:18;94800.84;;;20.74;48.24
2000;BME280;1001;48.87406500;9.59633600;2023-07-02T18:57:44;94796.22;;;20.66;48.79
2000;BME280;1001;48.87406500;9.59633600;2023-07-02T19:00:12;94799.41;;;20.54;48.76
2000;BME280;1001;48.87406500;9.59633600;2023-07-02T19:02:39;94792.75;;;20.43;48.76
2000;BME280;1001;48.87406500;9.59633600;2023-07-02T19:05:06;94793.94;;;20.37;49.51
2000;BME280;1001;48.87406500;9.59633600;2023-07-02T19:07:34;94800.59;;;20.21;49.57
2000;BME280;1001;48.87406500;9.59633600;2023-07-02T19:10:01;94796.91;;;20.22;49.68
2000;BME280;1001;48.87406500;9.59633600;2023-07-02T19:12:28;94796.78;;;20.13;49.89
2000;BME280;1001;48.87406500;9.59633600;2023-07-02T19:14:57;94795.28;;;20.07;50.43
2000;BME280;1001;48.87406500;9.59633600;2023-07-02T19:17:24;94798.03;;;19.89;50.29
2000;BME280;1001;48.87406500;9.59633600;2023-07-02T19:19:51;94795.16;;;19.85;50.47
2000;BME280;1001;48.87406500;9.59633600;2023-07-02T19:22:18;94807.44;;;19.81;51.29
2000;BME280;1001;48.87406500;9.59633600;2023-07-02T19:24:47;94799.78;;;19.66;51.29
2000;BME280;1001;48.87406500;9.59633600;2023-07-02T19:27:15;94800.06;;;19.64;51.34
2000;BME280;1001;48.87406500;9.59633600;2023-07-02T19:29:42;94806.81;;;19.57;51.03
2000;BME280;1001;48.87406500;9.59633600;2023-07-02T19:32:09;94810.56;;;19.56;51.60
2000;BME280;1001;48.87406500;9.59633600;2023-07-02T19:34:35;94809.06;;;19.50;51.41
2000;BME280;1001;48.87406500;9.59633600;2023-07-02T19:37:02;94811.53;;;19.46;51.84
2000;BME280;1001;48.87406500;9.59633600;2023-07-02T19:39:31;94815.84;;;19.42;51.46
2000;BME280;1001;48.87406500;9.59633600;2023-07-02T19:42:00;94825.47;;;19.33;51.93
2000;BME280;1001;48.87406500;9.59633600;2023-07-02T19:44:27;94823.44;;;19.30;52.74
2000;BME280;1001;48.87406500;9.59633600;2023-07-02T19:46:54;94826.22;;;19.20;52.70
2000;BME280;1001;48.87406500;9.59633600;2023-07-02T19:49:21;94827.41;;;19.14;52.39
2000;BME280;1001;48.87406500;9.59633600;2023-07-02T19:51:47;94832.91;;;19.18;52.04
2000;BME280;1001;48.87406500;9.59633600;2023-07-02T19:54:15;94831.41;;;19.12;52.23
2000;BME280;1001;48.87406500;9.59633600;2023-07-02T19:56:42;94835.19;;;19.06;52.86
2000;BME280;1001;48.87406500;9.59633600;2023-07-02T19:59:10;94843.81;;;18.97;52.56
2000;BME280;1001;48.87406500;9.59633600;2023-07-02T20:01:37;94843.09;;;18.92;53.01
2000;BME280;1001;48.87406500;9.59633600;2023-07-02T20:04:05;94848.69;;;18.90;52.85
2000;BME280;1001;48.87406500;9.59633600;2023-07-02T20:06:33;94850.03;;;18.88;53.02
2000;BME280;1001;48.87406500;9.59633600;2023-07-02T20:09:00;94854.59;;;18.82;53.07
2000;BME280;1001;48.87406500;9.59633600;2023-07-02T20:11:27;94857.88;;;18.74;53.42
2000;BME280;1001;48.87406500;9.59633600;2023-07-02T20:13:53;94864.78;;;18.75;53.41
2000;BME280;1001;48.87406500;9.59633600;2023-07-02T20:16:21;94856.25;;;18.60;54.39
2000;BME280;1001;48.87406500;9.59633600;2023-07-02T20:18:53;94857.31;;;18.59;54.15
2000;BME280;1001;48.87406500;9.59633600;2023-07-02T20:21:20;94865.81;;;18.56;53.98
2000;BME280;1001;48.87406500;9.59633600;2023-07-02T20:23:46;94863.41;;;18.59;54.48
2000;BME280;1001;48.87406500;9.59633600;2023-07-02T20:26:13;94864.75;;;18.57;54.59
2000;BME280;1001;48.87406500;9.59633600;2023-07-02T20:28:40;94874.91;;;18.50;54.59
2000;BME280;1001;48.87406500;9.59633600;2023-07-02T20:31:07;94866.66;;;18.51;54.87
2000;BME280;1001;48.87406500;9.59633600;2023-07-02T20:33:35;94872.81;;;18.47;54.54
2000;BME280;1001;48.87406500;9.59633600;2023-07-02T20:36:02;94876.84;;;18.39;55.13
2000;BME280;1001;48.87406500;9.59633600;2023-07-02T20:38:31;94878.13;;;18.42;55.35
2000;BME280;1001;48.87406500;9.59633600;2023-07-02T20:40:58;94883.25;;;18.33;55.56
2000;BME280;1001;48.87406500;9.59633600;2023-07-02T20:43:26;94880.13;;;18.31;56.01
2000;BME280;1001;48.87406500;9.59633600;2023-07-02T20:45:53;94880.22;;;18.21;56.65
2000;BME280;1001;48.87406500;9.59633600;2023-07-02T20:48:22;94886.53;;;18.25;56.52
2000;BME280;1001;48.87406500;9.59633600;2023-07-02T20:50:51;94885.56;;;18.16;56.46
2000;BME280;1001;48.87406500;9.59633600;2023-07-02T20:53:17;94882.13;;;18.15;56.49
2000;BME280;1001;48.87406500;9.59633600;2023-07-02T20:55:52;94885.56;;;18.16;56.66
2000;BME280;1001;48.87406500;9.59633600;2023-07-02T20:58:19;94883.75;;;18.11;56.69
2000;BME280;1001;48.87406500;9.59633600;2023-07-02T21:00:45;94879.59;;;18.05;57.33
2000;BME280;1001;48.87406500;9.59633600;2023-07-02T21:03:12;94884.91;;;18.05;57.22
2000;BME280;1001;48.87406500;9.59633600;2023-07-02T21:05:38;94892.59;;;18.02;57.37
2000;BME280;1001;48.87406500;9.59633600;2023-07-02T21:08:06;94889.66;;;18.03;56.78
2000;BME280;1001;48.87406500;9.59633600;2023-07-02T21:10:33;94888.88;;;18.03;57.03
2000;BME280;1001;48.87406500;9.59633600;2023-07-02T21:13:00;94893.94;;;17.99;57.27
2000;BME280;1001;48.87406500;9.59633600;2023-07-02T21:15:26;94888.34;;;18.01;57.20
2000;BME280;1001;48.87406500;9.59633600;2023-07-02T21:17:53;94891.88;;;17.91;58.03
2000;BME280;1001;48.87406500;9.59633600;2023-07-02T21:20:19;94894.88;;;17.85;57.63
2000;BME280;1001;48.87406500;9.59633600;2023-07-02T21:22:47;94886.41;;;17.83;58.28
2000;BME280;1001;48.87406500;9.59633600;2023-07-02T21:25:15;94898.59;;;17.84;58.03
2000;BME280;1001;48.87406500;9.59633600;2023-07-02T21:27:41;94894.91;;;17.80;58.13
2000;BME280;1001;48.87406500;9.59633600;2023-07-02T21:30:09;94891.53;;;17.74;58.30
2000;BME280;1001;48.87406500;9.59633600;2023-07-02T21:32:36;94897.59;;;17.75;58.58
2000;BME280;1001;48.87406500;9.59633600;2023-07-02T21:35:04;94897.41;;;17.66;58.88
2000;BME280;1001;48.87406500;9.59633600;2023-07-02T21:37:30;94894.53;;;17.62;59.65
2000;BME280;1001;48.87406500;9.59633600;2023-07-02T21:39:59;94899.25;;;17.65;59.37
2000;BME280;1001;48.87406500;9.59633600;2023-07-02T21:42:27;94901.47;;;17.53;59.78
2000;BME280;1001;48.87406500;9.59633600;2023-07-02T21:44:53;94898.31;;;17.51;60.18
2000;BME280;1001;48.87406500;9.59633600;2023-07-02T21:47:20;94903.91;;;17.45;60.44
2000;BME280;1001;48.87406500;9.59633600;2023-07-02T21:49:46;94900.97;;;17.46;60.22
2000;BME280;1001;48.87406500;9.59633600;2023-07-02T21:52:13;94897.81;;;17.44;60.18
2000;BME280;1001;48.87406500;9.59633600;2023-07-02T21:54:40;94900.97;;;17.46;60.19
2000;BME280;1001;48.87406500;9.59633600;2023-07-02T21:57:06;94907.06;;;17.42;60.59
2000;BME280;1001;48.87406500;9.59633600;2023-07-02T21:59:34;94903.94;;;17.40;60.64
2000;BME280;1001;48.87406500;9.59633600;2023-07-02T22:02:01;94904.44;;;17.42;60.63
2000;BME280;1001;48.87406500;9.59633600;2023-07-02T22:04:27;94908.69;;;17.38;61.01
2000;BME280;1001;48.87406500;9.59633600;2023-07-02T22:06:54;94904.56;;;17.27;61.49
2000;BME280;1001;48.87406500;9.59633600;2023-07-02T22:09:21;94906.25;;;17.13;62.32
2000;BME280;1001;48.87406500;9.59633600;2023-07-02T22:11:48;94905.78;;;17.00;62.91
2000;BME280;1001;48.87406500;9.59633600;2023-07-02T22:14:14;94902.63;;;16.98;63.11
2000;BME280;1001;48.87406500;9.59633600;2023-07-02T22:16:42;94902.13;;;16.91;63.22
2000;BME280;1001;48.87406500;9.59633600;2023-07-02T22:19:10;94904.81;;;16.86;63.80
2000;BME280;1001;48.87406500;9.59633600;2023-07-02T22:21:37;94899.81;;;16.80;64.13